sensor_id;sensor_type;location;lat;lon;timestamp;P1;durP1;ratioP1;P2;durP2;ratioP2
70216;SDS011;65567;55.684;37.570;2023-04-25T00:01:31;9.30;;;3.50;;
70216;SDS011;65567;55.684;37.570;2023-04-25T00:04:00;10.30;;;4.55;;
70216;SDS011;65567;55.684;37.570;2023-04-25T00:06:26;12.57;;;3.80;;
70216;SDS011;65567;55.684;37.570;2023-04-25T00:08:52;10.07;;;4.50;;
70216;SDS011;65567;55.684;37.570;2023-04-25T00:11:18;8.85;;;4.15;;
70216;SDS011;65567;55.684;37.570;2023-04-25T00:13:44;9.07;;;4.90;;
70216;SDS011;65567;55.684;37.570;2023-04-25T00:16:11;10.43;;;4.72;;
70216;SDS011;65567;55.684;37.570;2023-04-25T00:18:40;8.95;;;4.55;;
70216;SDS011;65567;55.684;37.570;2023-04-25T00:21:07;8.48;;;3.40;;
70216;SDS011;65567;55.684;37.570;2023-04-25T00:23:33;9.80;;;4.03;;
70216;SDS011;65567;55.684;37.570;2023-04-25T00:26:01;9.98;;;4.40;;
70216;SDS011;65567;55.684;37.570;2023-04-25T00:28:28;9.82;;;3.83;;
70216;SDS011;65567;55.684;37.570;2023-04-25T00:30:54;10.52;;;4.60;;
70216;SDS011;65567;55.684;37.570;2023-04-25T00:33:20;10.18;;;4.57;;
70216;SDS011;65567;55.684;37.570;2023-04-25T00:35:46;8.15;;;4.15;;
70216;SDS011;65567;55.684;37.570;2023-04-25T00:38:12;7.97;;;4.20;;
70216;SDS011;65567;55.684;37.570;2023-04-25T00:40:37;9.05;;;4.28;;
70216;SDS011;65567;55.684;37.570;2023-04-25T00:43:03;7.43;;;4.30;;
70216;SDS011;65567;55.684;37.570;2023-04-25T00:45:29;10.18;;;5.00;;
70216;SDS011;65567;55.684;37.570;2023-04-25T00:47:56;12.90;;;4.00;;
70216;SDS011;65567;55.684;37.570;2023-04-25T00:50:22;11.13;;;3.10;;
70216;SDS011;65567;55.684;37.570;2023-04-25T00:52:49;13.57;;;5.32;;
70216;SDS011;65567;55.684;37.570;2023-04-25T00:55:15;8.48;;;4.63;;
70216;SDS011;65567;55.684;37.570;2023-04-25T00:57:42;13.13;;;4.97;;
70216;SDS011;65567;55.684;37.570;2023-04-25T01:00:08;9.45;;;4.57;;
70216;SDS011;65567;55.684;37.570;2023-04-25T01:02:36;9.90;;;4.60;;
70216;SDS011;65567;55.684;37.570;2023-04-25T01:05:03;10.32;;;4.25;;
70216;SDS011;65567;55.684;37.570;2023-04-25T01:07:29;14.60;;;4.95;;
70216;SDS011;65567;55.684;37.570;2023-04-25T01:09:55;10.07;;;4.95;;
70216;SDS011;65567;55.684;37.570;2023-04-25T01:12:21;10.45;;;5.95;;
70216;SDS011;65567;55.684;37.570;2023-04-25T01:14:48;11.05;;;5.25;;
70216;SDS011;65567;55.684;37.570;2023-04-25T01:17:14;16.67;;;5.47;;
70216;SDS011;65567;55.684;37.570;2023-04-25T01:19:41;16.63;;;5.63;;
70216;SDS011;65567;55.684;37.570;2023-04-25T01:22:07;11.02;;;5.03;;
70216;SDS011;65567;55.684;37.570;2023-04-25T01:24:35;15.68;;;5.55;;
70216;SDS011;65567;55.684;37.570;2023-04-25T01:27:02;11.40;;;4.80;;
70216;SDS011;65567;55.684;37.570;2023-04-25T01:29:29;14.25;;;4.50;;
70216;SDS011;65567;55.684;37.570;2023-04-25T01:31:56;10.00;;;4.25;;
70216;SDS011;65567;55.684;37.570;2023-04-25T01:34:23;14.20;;;4.85;;
70216;SDS011;65567;55.684;37.570;2023-04-25T01:36:50;9.90;;;4.95;;
70216;SDS011;65567;55.684;37.570;2023-04-25T01:39:17;12.80;;;5.05;;
70216;SDS011;65567;55.684;37.570;2023-04-25T01:41:43;10.13;;;4.63;;
70216;SDS011;65567;55.684;37.570;2023-04-25T01:44:09;10.52;;;5.28;;
70216;SDS011;65567;55.684;37.570;2023-04-25T01:46:35;10.10;;;4.72;;
70216;SDS011;65567;55.684;37.570;2023-04-25T01:49:01;12.40;;;4.68;;
70216;SDS011;65567;55.684;37.570;2023-04-25T01:51:27;10.75;;;4.68;;
70216;SDS011;65567;55.684;37.570;2023-04-25T01:53:54;9.18;;;4.50;;
70216;SDS011;65567;55.684;37.570;2023-04-25T01:56:20;10.63;;;5.45;;
70216;SDS011;65567;55.684;37.570;2023-04-25T01:58:46;11.57;;;4.78;;
70216;SDS011;65567;55.684;37.570;2023-04-25T02:01:12;12.57;;;5.43;;
70216;SDS011;65567;55.684;37.570;2023-04-25T02:03:38;9.43;;;5.05;;
70216;SDS011;65567;55.684;37.570;2023-04-25T02:06:04;9.65;;;5.10;;
70216;SDS011;65567;55.684;37.570;2023-04-25T02:08:30;10.38;;;5.03;;
70216;SDS011;65567;55.684;37.570;2023-04-25T02:10:56;14.80;;;5.43;;
70216;SDS011;65567;55.684;37.570;2023-04-25T02:13:22;11.43;;;5.20;;
70216;SDS011;65567;55.684;37.570;2023-04-25T02:15:48;10.75;;;5.38;;
70216;SDS011;65567;55.684;37.570;2023-04-25T02:18:14;11.30;;;5.70;;
70216;SDS011;65567;55.684;37.570;2023-04-25T02:20:41;12.98;;;5.47;;
70216;SDS011;65567;55.684;37.570;2023-04-25T02:23:08;10.68;;;4.85;;
70216;SDS011;65567;55.684;37.570;2023-04-25T02:25:34;12.38;;;5.10;;
70216;SDS011;65567;55.684;37.570;2023-04-25T02:28:00;11.05;;;4.93;;
70216;SDS011;65567;55.684;37.570;2023-04-25T02:30:26;8.32;;;4.47;;
70216;SDS011;65567;55.684;37.570;2023-04-25T02:32:52;13.18;;;4.72;;
70216;SDS011;65567;55.684;37.570;2023-04-25T02:35:18;10.45;;;4.70;;
70216;SDS011;65567;55.684;37.570;2023-04-25T02:37:44;7.15;;;4.22;;
70216;SDS011;65567;55.684;37.570;2023-04-25T02:40:10;10.10;;;4.45;;
70216;SDS011;65567;55.684;37.570;2023-04-25T02:42:36;10.15;;;4.55;;
70216;SDS011;65567;55.684;37.570;2023-04-25T02:45:02;9.25;;;4.50;;
70216;SDS011;65567;55.684;37.570;2023-04-25T02:47:28;8.73;;;3.90;;
70216;SDS011;65567;55.684;37.570;2023-04-25T02:49:54;8.40;;;3.90;;
70216;SDS011;65567;55.684;37.570;2023-04-25T02:52:20;10.00;;;4.22;;
70216;SDS011;65567;55.684;37.570;2023-04-25T02:54:46;8.20;;;4.35;;
70216;SDS011;65567;55.684;37.570;2023-04-25T02:57:12;7.97;;;4.65;;
70216;SDS011;65567;55.684;37.570;2023-04-25T02:59:38;11.23;;;4.70;;
70216;SDS011;65567;55.684;37.570;2023-04-25T03:02:04;12.52;;;4.75;;
70216;SDS011;65567;55.684;37.570;2023-04-25T03:04:30;7.60;;;4.38;;
70216;SDS011;65567;55.684;37.570;2023-04-25T03:06:56;6.68;;;3.95;;
70216;SDS011;65567;55.684;37.570;2023-04-25T03:09:21;11.60;;;4.35;;
70216;SDS011;65567;55.684;37.570;2023-04-25T03:11:47;8.60;;;4.30;;
70216;SDS011;65567;55.684;37.570;2023-04-25T03:14:13;6.30;;;3.58;;
70216;SDS011;65567;55.684;37.570;2023-04-25T03:16:39;10.88;;;4.15;;
70216;SDS011;65567;55.684;37.570;2023-04-25T03:19:05;11.55;;;4.82;;
70216;SDS011;65567;55.684;37.570;2023-04-25T03:21:32;8.02;;;4.20;;
70216;SDS011;65567;55.684;37.570;2023-04-25T03:24:00;12.18;;;5.53;;
70216;SDS011;65567;55.684;37.570;2023-04-25T03:26:27;10.90;;;6.03;;
70216;SDS011;65567;55.684;37.570;2023-04-25T03:28:53;18.05;;;6.55;;
70216;SDS011;65567;55.684;37.570;2023-04-25T03:31:19;11.35;;;5.72;;
70216;SDS011;65567;55.684;37.570;2023-04-25T03:33:45;9.70;;;5.70;;
70216;SDS011;65567;55.684;37.570;2023-04-25T03:36:11;12.10;;;5.88;;
70216;SDS011;65567;55.684;37.570;2023-04-25T03:38:37;9.10;;;5.32;;
70216;SDS011;65567;55.684;37.570;2023-04-25T03:41:03;11.60;;;6.60;;
70216;SDS011;65567;55.684;37.570;2023-04-25T03:43:29;9.95;;;6.07;;
70216;SDS011;65567;55.684;37.570;2023-04-25T03:45:55;12.27;;;6.03;;
70216;SDS011;65567;55.684;37.570;2023-04-25T03:48:21;11.27;;;6.72;;
70216;SDS011;65567;55.684;37.570;2023-04-25T03:50:49;11.02;;;6.53;;
70216;SDS011;65567;55.684;37.570;2023-04-25T03:53:15;11.25;;;5.90;;
70216;SDS011;65567;55.684;37.570;2023-04-25T03:55:41;9.98;;;5.93;;
70216;SDS011;65567;55.684;37.570;2023-04-25T03:58:07;12.73;;;6.95;;
70216;SDS011;65567;55.684;37.570;2023-04-25T04:00:34;8.48;;;5.65;;
70216;SDS011;65567;55.684;37.570;2023-04-25T04:03:00;11.27;;;6.25;;
70216;SDS011;65567;55.684;37.570;2023-04-25T04:05:26;13.07;;;6.72;;
70216;SDS011;65567;55.684;37.570;2023-04-25T04:07:52;11.00;;;7.28;;
70216;SDS011;65567;55.684;37.570;2023-04-25T04:10:19;14.77;;;6.72;;
70216;SDS011;65567;55.684;37.570;2023-04-25T04:12:44;15.95;;;7.05;;
70216;SDS011;65567;55.684;37.570;2023-04-25T04:15:10;10.00;;;6.10;;
70216;SDS011;65567;55.684;37.570;2023-04-25T04:17:37;13.30;;;6.70;;
70216;SDS011;65567;55.684;37.570;2023-04-25T04:20:03;14.18;;;7.28;;
70216;SDS011;65567;55.684;37.570;2023-04-25T04:22:31;16.58;;;8.50;;
70216;SDS011;65567;55.684;37.570;2023-04-25T04:24:56;15.00;;;8.00;;
70216;SDS011;65567;55.684;37.570;2023-04-25T04:27:23;15.20;;;7.38;;
70216;SDS011;65567;55.684;37.570;2023-04-25T04:29:49;13.95;;;7.57;;
70216;SDS011;65567;55.684;37.570;2023-04-25T04:32:17;14.40;;;8.38;;
70216;SDS011;65567;55.684;37.570;2023-04-25T04:34:43;12.38;;;7.18;;
70216;SDS011;65567;55.684;37.570;2023-04-25T04:37:09;16.13;;;7.85;;
70216;SDS011;65567;55.684;37.570;2023-04-25T04:39:38;16.27;;;7.45;;
70216;SDS011;65567;55.684;37.570;2023-04-25T04:42:04;14.05;;;7.65;;
70216;SDS011;65567;55.684;37.570;2023-04-25T04:44:30;15.02;;;7.95;;
70216;SDS011;65567;55.684;37.570;2023-04-25T04:47:00;17.85;;;8.35;;
70216;SDS011;65567;55.684;37.570;2023-04-25T04:49:27;11.77;;;7.10;;
70216;SDS011;65567;55.684;37.570;2023-04-25T04:51:53;16.83;;;7.35;;
70216;SDS011;65567;55.684;37.570;2023-04-25T04:54:19;19.15;;;7.70;;
70216;SDS011;65567;55.684;37.570;2023-04-25T04:56:45;15.82;;;7.20;;
70216;SDS011;65567;55.684;37.570;2023-04-25T04:59:11;16.70;;;7.35;;
70216;SDS011;65567;55.684;37.570;2023-04-25T05:01:37;16.00;;;6.80;;
70216;SDS011;65567;55.684;37.570;2023-04-25T05:04:03;11.13;;;6.20;;
70216;SDS011;65567;55.684;37.570;2023-04-25T05:06:30;14.13;;;6.35;;
70216;SDS011;65567;55.684;37.570;2023-04-25T05:08:57;12.55;;;6.47;;
70216;SDS011;65567;55.684;37.570;2023-04-25T05:11:23;13.50;;;6.78;;
70216;SDS011;65567;55.684;37.570;2023-04-25T05:13:52;12.23;;;6.50;;
70216;SDS011;65567;55.684;37.570;2023-04-25T05:16:19;12.52;;;7.03;;
70216;SDS011;65567;55.684;37.570;2023-04-25T05:18:45;11.73;;;5.72;;
70216;SDS011;65567;55.684;37.570;2023-04-25T05:21:12;13.85;;;5.32;;
70216;SDS011;65567;55.684;37.570;2023-04-25T05:23:38;28.17;;;7.53;;
70216;SDS011;65567;55.684;37.570;2023-04-25T05:26:03;24.63;;;8.00;;
70216;SDS011;65567;55.684;37.570;2023-04-25T05:28:30;18.15;;;6.55;;
70216;SDS011;65567;55.684;37.570;2023-04-25T05:30:56;29.95;;;7.97;;
70216;SDS011;65567;55.684;37.570;2023-04-25T05:33:22;13.30;;;5.35;;
70216;SDS011;65567;55.684;37.570;2023-04-25T05:35:48;17.60;;;6.78;;
70216;SDS011;65567;55.684;37.570;2023-04-25T05:38:15;11.88;;;5.90;;
70216;SDS011;65567;55.684;37.570;2023-04-25T05:40:41;13.30;;;5.82;;
70216;SDS011;65567;55.684;37.570;2023-04-25T05:43:07;35.08;;;8.93;;
70216;SDS011;65567;55.684;37.570;2023-04-25T05:45:33;17.70;;;6.97;;
70216;SDS011;65567;55.684;37.570;2023-04-25T05:47:59;11.00;;;6.43;;
70216;SDS011;65567;55.684;37.570;2023-04-25T05:50:25;28.38;;;7.82;;
70216;SDS011;65567;55.684;37.570;2023-04-25T05:52:51;18.20;;;8.75;;
70216;SDS011;65567;55.684;37.570;2023-04-25T05:55:17;17.17;;;8.55;;
70216;SDS011;65567;55.684;37.570;2023-04-25T05:57:43;14.20;;;6.68;;
70216;SDS011;65567;55.684;37.570;2023-04-25T06:00:11;15.13;;;7.10;;
70216;SDS011;65567;55.684;37.570;2023-04-25T06:02:38;14.95;;;6.03;;
70216;SDS011;65567;55.684;37.570;2023-04-25T06:05:05;9.98;;;5.75;;
70216;SDS011;65567;55.684;37.570;2023-04-25T06:07:31;18.75;;;6.72;;
70216;SDS011;65567;55.684;37.570;2023-04-25T06:09:57;12.63;;;6.47;;
70216;SDS011;65567;55.684;37.570;2023-04-25T06:12:23;13.73;;;5.35;;
70216;SDS011;65567;55.684;37.570;2023-04-25T06:14:49;10.23;;;5.40;;
70216;SDS011;65567;55.684;37.570;2023-04-25T06:17:15;10.65;;;5.63;;
70216;SDS011;65567;55.684;37.570;2023-04-25T06:19:41;8.82;;;5.60;;
70216;SDS011;65567;55.684;37.570;2023-04-25T06:22:08;14.65;;;5.43;;
70216;SDS011;65567;55.684;37.570;2023-04-25T06:24:34;15.95;;;6.13;;
70216;SDS011;65567;55.684;37.570;2023-04-25T06:27:00;11.23;;;5.07;;
70216;SDS011;65567;55.684;37.570;2023-04-25T06:29:26;13.05;;;4.57;;
70216;SDS011;65567;55.684;37.570;2023-04-25T06:31:52;12.82;;;4.95;;
70216;SDS011;65567;55.684;37.570;2023-04-25T06:34:18;10.18;;;4.85;;
70216;SDS011;65567;55.684;37.570;2023-04-25T06:36:44;12.48;;;4.57;;
70216;SDS011;65567;55.684;37.570;2023-04-25T06:39:10;8.95;;;4.55;;
70216;SDS011;65567;55.684;37.570;2023-04-25T06:41:36;9.75;;;3.47;;
70216;SDS011;65567;55.684;37.570;2023-04-25T06:44:02;9.15;;;4.22;;
70216;SDS011;65567;55.684;37.570;2023-04-25T06:46:29;10.38;;;4.25;;
70216;SDS011;65567;55.684;37.570;2023-04-25T06:48:58;12.77;;;4.68;;
70216;SDS011;65567;55.684;37.570;2023-04-25T06:51:24;8.45;;;4.18;;
70216;SDS011;65567;55.684;37.570;2023-04-25T06:53:53;10.97;;;3.70;;
70216;SDS011;65567;55.684;37.570;2023-04-25T06:56:19;12.70;;;4.68;;
70216;SDS011;65567;55.684;37.570;2023-04-25T06:58:46;15.40;;;5.18;;
70216;SDS011;65567;55.684;37.570;2023-04-25T07:01:12;11.68;;;4.28;;
70216;SDS011;65567;55.684;37.570;2023-04-25T07:03:39;12.57;;;5.03;;
70216;SDS011;65567;55.684;37.570;2023-04-25T07:06:05;8.60;;;4.45;;
70216;SDS011;65567;55.684;37.570;2023-04-25T07:08:31;9.80;;;4.10;;
70216;SDS011;65567;55.684;37.570;2023-04-25T07:10:58;7.65;;;4.07;;
70216;SDS011;65567;55.684;37.570;2023-04-25T07:13:24;11.02;;;4.38;;
70216;SDS011;65567;55.684;37.570;2023-04-25T07:15:51;8.65;;;4.97;;
70216;SDS011;65567;55.684;37.570;2023-04-25T07:18:17;11.85;;;5.15;;
70216;SDS011;65567;55.684;37.570;2023-04-25T07:20:43;11.25;;;5.43;;
70216;SDS011;65567;55.684;37.570;2023-04-25T07:23:09;15.90;;;5.55;;
70216;SDS011;65567;55.684;37.570;2023-04-25T07:25:35;11.43;;;5.57;;
70216;SDS011;65567;55.684;37.570;2023-04-25T07:28:01;11.73;;;5.82;;
70216;SDS011;65567;55.684;37.570;2023-04-25T07:30:27;12.15;;;5.78;;
70216;SDS011;65567;55.684;37.570;2023-04-25T07:32:54;11.82;;;5.60;;
70216;SDS011;65567;55.684;37.570;2023-04-25T07:35:20;20.20;;;6.40;;
70216;SDS011;65567;55.684;37.570;2023-04-25T07:37:46;12.95;;;5.53;;
70216;SDS011;65567;55.684;37.570;2023-04-25T07:40:13;9.93;;;4.03;;
70216;SDS011;65567;55.684;37.570;2023-04-25T07:42:41;17.50;;;4.47;;
70216;SDS011;65567;55.684;37.570;2023-04-25T07:45:09;7.45;;;3.47;;
70216;SDS011;65567;55.684;37.570;2023-04-25T07:47:35;10.98;;;3.70;;
70216;SDS011;65567;55.684;37.570;2023-04-25T07:50:02;9.90;;;3.60;;
70216;SDS011;65567;55.684;37.570;2023-04-25T07:52:29;6.88;;;3.58;;
70216;SDS011;65567;55.684;37.570;2023-04-25T07:54:55;7.15;;;3.85;;
70216;SDS011;65567;55.684;37.570;2023-04-25T07:57:22;7.32;;;3.30;;
70216;SDS011;65567;55.684;37.570;2023-04-25T07:59:49;10.85;;;3.97;;
70216;SDS011;65567;55.684;37.570;2023-04-25T08:02:15;10.90;;;4.43;;
70216;SDS011;65567;55.684;37.570;2023-04-25T08:04:41;9.50;;;3.67;;
70216;SDS011;65567;55.684;37.570;2023-04-25T08:07:09;7.13;;;2.80;;
70216;SDS011;65567;55.684;37.570;2023-04-25T08:09:35;7.40;;;3.60;;
70216;SDS011;65567;55.684;37.570;2023-04-25T08:12:02;8.20;;;2.25;;
70216;SDS011;65567;55.684;37.570;2023-04-25T08:14:28;9.63;;;3.15;;
70216;SDS011;65567;55.684;37.570;2023-04-25T08:17:01;10.52;;;3.22;;
70216;SDS011;65567;55.684;37.570;2023-04-25T08:19:28;7.88;;;2.85;;
70216;SDS011;65567;55.684;37.570;2023-04-25T08:21:56;6.85;;;2.97;;
70216;SDS011;65567;55.684;37.570;2023-04-25T08:24:22;11.20;;;3.03;;
70216;SDS011;65567;55.684;37.570;2023-04-25T08:26:49;8.40;;;3.45;;
70216;SDS011;65567;55.684;37.570;2023-04-25T08:29:15;7.78;;;3.25;;
70216;SDS011;65567;55.684;37.570;2023-04-25T08:31:41;8.07;;;2.72;;
70216;SDS011;65567;55.684;37.570;2023-04-25T08:34:07;9.45;;;4.00;;
70216;SDS011;65567;55.684;37.570;2023-04-25T08:36:33;7.15;;;3.17;;
70216;SDS011;65567;55.684;37.570;2023-04-25T08:38:58;8.45;;;3.70;;
70216;SDS011;65567;55.684;37.570;2023-04-25T08:41:25;5.13;;;3.05;;
70216;SDS011;65567;55.684;37.570;2023-04-25T08:43:52;7.50;;;3.35;;
70216;SDS011;65567;55.684;37.570;2023-04-25T08:46:21;10.40;;;3.05;;
70216;SDS011;65567;55.684;37.570;2023-04-25T08:48:48;10.15;;;3.20;;
70216;SDS011;65567;55.684;37.570;2023-04-25T08:51:20;12.38;;;3.55;;
70216;SDS011;65567;55.684;37.570;2023-04-25T08:53:49;14.20;;;3.78;;
70216;SDS011;65567;55.684;37.570;2023-04-25T08:57:31;6.73;;;4.00;;
70216;SDS011;65567;55.684;37.570;2023-04-25T08:59:58;11.38;;;4.28;;
70216;SDS011;65567;55.684;37.570;2023-04-25T09:02:27;8.95;;;3.25;;
70216;SDS011;65567;55.684;37.570;2023-04-25T09:04:58;7.10;;;3.55;;
70216;SDS011;65567;55.684;37.570;2023-04-25T09:07:24;9.43;;;3.65;;
70216;SDS011;65567;55.684;37.570;2023-04-25T09:09:51;11.98;;;4.30;;
70216;SDS011;65567;55.684;37.570;2023-04-25T09:12:20;10.23;;;3.28;;
70216;SDS011;65567;55.684;37.570;2023-04-25T09:15:02;8.50;;;2.78;;
70216;SDS011;65567;55.684;37.570;2023-04-25T09:17:32;12.30;;;2.97;;
70216;SDS011;65567;55.684;37.570;2023-04-25T09:20:07;7.65;;;2.83;;
70216;SDS011;65567;55.684;37.570;2023-04-25T09:22:38;13.82;;;3.22;;
70216;SDS011;65567;55.684;37.570;2023-04-25T09:25:13;11.55;;;3.10;;
70216;SDS011;65567;55.684;37.570;2023-04-25T09:27:52;5.45;;;2.25;;
70216;SDS011;65567;55.684;37.570;2023-04-25T09:30:28;16.40;;;3.90;;
70216;SDS011;65567;55.684;37.570;2023-04-25T09:33:13;11.77;;;3.38;;
70216;SDS011;65567;55.684;37.570;2023-04-25T09:35:42;6.57;;;2.97;;
70216;SDS011;65567;55.684;37.570;2023-04-25T09:40:38;6.28;;;3.05;;
70216;SDS011;65567;55.684;37.570;2023-04-25T09:43:20;5.88;;;2.90;;
70216;SDS011;65567;55.684;37.570;2023-04-25T09:45:47;8.20;;;2.57;;
70216;SDS011;65567;55.684;37.570;2023-04-25T09:48:18;6.20;;;2.65;;
70216;SDS011;65567;55.684;37.570;2023-04-25T09:51:06;6.50;;;3.10;;
70216;SDS011;65567;55.684;37.570;2023-04-25T09:53:38;8.23;;;2.58;;
70216;SDS011;65567;55.684;37.570;2023-04-25T09:56:09;9.27;;;3.00;;
70216;SDS011;65567;55.684;37.570;2023-04-25T09:58:38;9.82;;;2.58;;
70216;SDS011;65567;55.684;37.570;2023-04-25T10:01:14;8.10;;;3.15;;
70216;SDS011;65567;55.684;37.570;2023-04-25T10:03:42;5.10;;;2.95;;
70216;SDS011;65567;55.684;37.570;2023-04-25T10:06:14;6.30;;;2.40;;
70216;SDS011;65567;55.684;37.570;2023-04-25T10:08:44;7.60;;;2.45;;
70216;SDS011;65567;55.684;37.570;2023-04-25T10:11:15;8.38;;;2.55;;
70216;SDS011;65567;55.684;37.570;2023-04-25T10:13:41;9.73;;;2.75;;
70216;SDS011;65567;55.684;37.570;2023-04-25T10:16:12;8.65;;;3.10;;
70216;SDS011;65567;55.684;37.570;2023-04-25T10:18:38;14.98;;;2.75;;
70216;SDS011;65567;55.684;37.570;2023-04-25T10:21:05;5.78;;;3.10;;
70216;SDS011;65567;55.684;37.570;2023-04-25T10:23:32;3.83;;;2.67;;
70216;SDS011;65567;55.684;37.570;2023-04-25T10:25:59;8.38;;;2.80;;
70216;SDS011;65567;55.684;37.570;2023-04-25T10:28:26;6.32;;;3.38;;
70216;SDS011;65567;55.684;37.570;2023-04-25T10:30:57;6.97;;;2.92;;
70216;SDS011;65567;55.684;37.570;2023-04-25T10:36:10;7.30;;;2.90;;
70216;SDS011;65567;55.684;37.570;2023-04-25T10:38:41;6.10;;;3.03;;
70216;SDS011;65567;55.684;37.570;2023-04-25T10:41:08;8.88;;;3.80;;
70216;SDS011;65567;55.684;37.570;2023-04-25T10:43:39;5.13;;;2.08;;
70216;SDS011;65567;55.684;37.570;2023-04-25T10:46:22;7.35;;;2.80;;
70216;SDS011;65567;55.684;37.570;2023-04-25T10:48:49;8.20;;;2.90;;
70216;SDS011;65567;55.684;37.570;2023-04-25T10:51:26;4.47;;;2.47;;
70216;SDS011;65567;55.684;37.570;2023-04-25T10:54:00;7.55;;;2.72;;
70216;SDS011;65567;55.684;37.570;2023-04-25T10:56:32;9.75;;;3.10;;
70216;SDS011;65567;55.684;37.570;2023-04-25T11:01:38;6.78;;;2.90;;
70216;SDS011;65567;55.684;37.570;2023-04-25T11:04:24;5.25;;;2.60;;
70216;SDS011;65567;55.684;37.570;2023-04-25T11:09:19;6.72;;;2.97;;
70216;SDS011;65567;55.684;37.570;2023-04-25T11:11:57;7.78;;;2.97;;
70216;SDS011;65567;55.684;37.570;2023-04-25T11:14:25;8.57;;;2.60;;
70216;SDS011;65567;55.684;37.570;2023-04-25T11:16:57;5.15;;;3.20;;
70216;SDS011;65567;55.684;37.570;2023-04-25T11:19:24;6.70;;;2.72;;
70216;SDS011;65567;55.684;37.570;2023-04-25T11:21:55;4.90;;;2.50;;
70216;SDS011;65567;55.684;37.570;2023-04-25T11:24:34;4.07;;;2.00;;
70216;SDS011;65567;55.684;37.570;2023-04-25T11:27:01;5.68;;;2.30;;
70216;SDS011;65567;55.684;37.570;2023-04-25T11:29:29;8.10;;;2.15;;
70216;SDS011;65567;55.684;37.570;2023-04-25T11:31:56;4.30;;;2.20;;
70216;SDS011;65567;55.684;37.570;2023-04-25T11:34:28;6.95;;;2.42;;
70216;SDS011;65567;55.684;37.570;2023-04-25T11:37:01;6.38;;;2.20;;
70216;SDS011;65567;55.684;37.570;2023-04-25T11:39:27;6.03;;;2.17;;
70216;SDS011;65567;55.684;37.570;2023-04-25T11:41:54;3.72;;;1.95;;
70216;SDS011;65567;55.684;37.570;2023-04-25T11:44:20;6.60;;;2.10;;
70216;SDS011;65567;55.684;37.570;2023-04-25T11:46:47;5.65;;;2.00;;
70216;SDS011;65567;55.684;37.570;2023-04-25T11:49:13;6.22;;;2.30;;
70216;SDS011;65567;55.684;37.570;2023-04-25T11:51:47;5.05;;;2.08;;
70216;SDS011;65567;55.684;37.570;2023-04-25T11:54:14;5.90;;;2.35;;
70216;SDS011;65567;55.684;37.570;2023-04-25T11:56:43;4.97;;;1.95;;
70216;SDS011;65567;55.684;37.570;2023-04-25T11:59:10;6.65;;;2.33;;
70216;SDS011;65567;55.684;37.570;2023-04-25T12:01:38;5.43;;;2.00;;
70216;SDS011;65567;55.684;37.570;2023-04-25T12:04:22;3.15;;;2.10;;
70216;SDS011;65567;55.684;37.570;2023-04-25T12:06:50;9.68;;;2.35;;
70216;SDS011;65567;55.684;37.570;2023-04-25T12:09:18;11.40;;;3.10;;
70216;SDS011;65567;55.684;37.570;2023-04-25T12:11:54;5.35;;;2.53;;
70216;SDS011;65567;55.684;37.570;2023-04-25T12:14:25;12.35;;;3.70;;
70216;SDS011;65567;55.684;37.570;2023-04-25T12:16:57;5.80;;;2.00;;
70216;SDS011;65567;55.684;37.570;2023-04-25T12:19:31;7.72;;;2.45;;
70216;SDS011;65567;55.684;37.570;2023-04-25T12:22:00;7.43;;;2.28;;
70216;SDS011;65567;55.684;37.570;2023-04-25T12:24:28;12.80;;;3.38;;
70216;SDS011;65567;55.684;37.570;2023-04-25T12:27:03;12.95;;;3.05;;
70216;SDS011;65567;55.684;37.570;2023-04-25T12:29:32;16.42;;;4.20;;
70216;SDS011;65567;55.684;37.570;2023-04-25T12:31:59;16.85;;;3.28;;
70216;SDS011;65567;55.684;37.570;2023-04-25T12:34:27;5.10;;;2.50;;
70216;SDS011;65567;55.684;37.570;2023-04-25T12:36:53;4.45;;;1.85;;
70216;SDS011;65567;55.684;37.570;2023-04-25T12:39:22;4.95;;;2.58;;
70216;SDS011;65567;55.684;37.570;2023-04-25T12:41:49;7.50;;;2.50;;
70216;SDS011;65567;55.684;37.570;2023-04-25T12:44:17;5.53;;;2.55;;
70216;SDS011;65567;55.684;37.570;2023-04-25T12:46:43;7.47;;;2.20;;
70216;SDS011;65567;55.684;37.570;2023-04-25T12:49:09;7.47;;;2.33;;
70216;SDS011;65567;55.684;37.570;2023-04-25T12:51:35;6.30;;;2.40;;
70216;SDS011;65567;55.684;37.570;2023-04-25T12:54:04;6.53;;;2.50;;
70216;SDS011;65567;55.684;37.570;2023-04-25T12:56:32;7.80;;;2.53;;
70216;SDS011;65567;55.684;37.570;2023-04-25T12:58:58;7.03;;;2.40;;
70216;SDS011;65567;55.684;37.570;2023-04-25T13:01:24;8.02;;;2.80;;
70216;SDS011;65567;55.684;37.570;2023-04-25T13:03:51;10.38;;;3.47;;
70216;SDS011;65567;55.684;37.570;2023-04-25T13:06:18;10.43;;;2.40;;
70216;SDS011;65567;55.684;37.570;2023-04-25T13:08:45;6.47;;;2.10;;
70216;SDS011;65567;55.684;37.570;2023-04-25T13:11:12;8.18;;;2.08;;
70216;SDS011;65567;55.684;37.570;2023-04-25T13:13:39;4.38;;;2.72;;
70216;SDS011;65567;55.684;37.570;2023-04-25T13:16:06;13.90;;;2.97;;
70216;SDS011;65567;55.684;37.570;2023-04-25T13:18:32;7.30;;;2.80;;
70216;SDS011;65567;55.684;37.570;2023-04-25T13:20:58;5.82;;;2.60;;
70216;SDS011;65567;55.684;37.570;2023-04-25T13:23:26;6.95;;;2.50;;
70216;SDS011;65567;55.684;37.570;2023-04-25T13:25:53;5.00;;;2.25;;
70216;SDS011;65567;55.684;37.570;2023-04-25T13:28:20;9.77;;;3.20;;
70216;SDS011;65567;55.684;37.570;2023-04-25T13:30:46;5.85;;;3.17;;
70216;SDS011;65567;55.684;37.570;2023-04-25T13:33:13;6.25;;;2.90;;
70216;SDS011;65567;55.684;37.570;2023-04-25T13:35:40;7.47;;;2.97;;
70216;SDS011;65567;55.684;37.570;2023-04-25T13:38:07;6.90;;;2.80;;
70216;SDS011;65567;55.684;37.570;2023-04-25T13:40:34;7.47;;;3.08;;
70216;SDS011;65567;55.684;37.570;2023-04-25T13:43:01;6.47;;;2.90;;
70216;SDS011;65567;55.684;37.570;2023-04-25T13:45:30;8.07;;;2.53;;
70216;SDS011;65567;55.684;37.570;2023-04-25T13:47:56;9.15;;;3.15;;
70216;SDS011;65567;55.684;37.570;2023-04-25T13:50:22;10.50;;;2.90;;
70216;SDS011;65567;55.684;37.570;2023-04-25T13:52:48;4.55;;;2.58;;
70216;SDS011;65567;55.684;37.570;2023-04-25T13:55:14;7.00;;;3.75;;
70216;SDS011;65567;55.684;37.570;2023-04-25T13:57:40;13.52;;;3.15;;
70216;SDS011;65567;55.684;37.570;2023-04-25T14:00:07;7.40;;;3.00;;
70216;SDS011;65567;55.684;37.570;2023-04-25T14:02:35;6.15;;;2.75;;
70216;SDS011;65567;55.684;37.570;2023-04-25T14:05:02;8.13;;;2.63;;
70216;SDS011;65567;55.684;37.570;2023-04-25T14:07:30;5.72;;;2.28;;
70216;SDS011;65567;55.684;37.570;2023-04-25T14:09:57;7.47;;;2.75;;
70216;SDS011;65567;55.684;37.570;2023-04-25T14:12:24;6.13;;;3.20;;
70216;SDS011;65567;55.684;37.570;2023-04-25T14:14:50;6.97;;;2.72;;
70216;SDS011;65567;55.684;37.570;2023-04-25T14:17:18;12.10;;;3.30;;
70216;SDS011;65567;55.684;37.570;2023-04-25T14:19:44;7.40;;;2.78;;
70216;SDS011;65567;55.684;37.570;2023-04-25T14:22:13;8.38;;;3.00;;
70216;SDS011;65567;55.684;37.570;2023-04-25T14:24:40;7.68;;;2.67;;
70216;SDS011;65567;55.684;37.570;2023-04-25T14:27:06;4.57;;;2.30;;
70216;SDS011;65567;55.684;37.570;2023-04-25T14:29:33;6.38;;;2.80;;
70216;SDS011;65567;55.684;37.570;2023-04-25T14:31:59;8.60;;;2.70;;
70216;SDS011;65567;55.684;37.570;2023-04-25T14:34:25;8.63;;;2.72;;
70216;SDS011;65567;55.684;37.570;2023-04-25T14:36:52;5.53;;;2.65;;
70216;SDS011;65567;55.684;37.570;2023-04-25T14:39:18;7.22;;;2.88;;
70216;SDS011;65567;55.684;37.570;2023-04-25T14:41:44;6.72;;;2.92;;